Time;durP1;ratioP1;P1;durP2;ratioP2;P2;SDS_P1;SDS_P2;PMS_P1;PMS_P2;Temp;Humidity;BMP_temperature;BMP_pressure;BME280_temperature;BME280_humidity;BME280_pressure;Samples;Min_cycle;Max_cycle;Signal;HPM_P1;HPM_P2
2023/10/27 00:00:49;;;;;;;40.63;20.70;;;;;;;;;;5042857;28;20115;-68
2023/10/27 00:03:15;;;;;;;37.42;20.70;;;;;;;;;;5050580;28;20064;-70
2023/10/27 00:05:41;;;;;;;36.30;20.95;;;;;;;;;;5066502;28;20044;-70
2023/10/27 00:08:07;;;;;;;40.47;22.60;;;;;;;;;;5044364;28;20487;-70
2023/10/27 00:10:36;;;;;;;37.00;20.48;;;;;;;;;;5048832;28;20051;-70
2023/10/27 00:13:02;;;;;;;41.05;20.98;;;9.40;99.90;;;;;;5048124;28;20044;-70
2023/10/27 00:15:28;;;;;;;39.13;21.67;;;;;;;;;;5044966;28;20045;-70
2023/10/27 00:17:56;;;;;;;37.28;20.25;;;9.60;99.90;;;;;;5043215;28;20068;-70
2023/10/27 00:20:23;;;;;;;36.25;20.83;;;;;;;;;;5038759;28;20413;-70
2023/10/27 00:22:49;;;;;;;40.40;21.35;;;;;;;;;;5060442;28;20040;-70
2023/10/27 00:25:15;;;;;;;38.90;20.60;;;;;;;;;;5030921;28;20408;-70
2023/10/27 00:27:41;;;;;;;39.50;20.35;;;;;;;;;;5028262;28;20115;-69
2023/10/27 00:30:10;;;;;;;37.78;20.42;;;;;;;;;;5066685;28;20588;-70
2023/10/27 00:32:37;;;;;;;41.92;19.02;;;;;;;;;;5065877;28;20117;-68
2023/10/27 00:35:06;;;;;;;41.45;20.63;;;;;;;;;;5028745;28;20040;-70
2023/10/27 00:37:35;;;;;;;37.70;19.17;;;;;;;;;;5044911;28;20411;-69
2023/10/27 00:40:01;;;;;;;37.55;19.48;;;;;;;;;;5039394;28;20172;-69
2023/10/27 00:42:28;;;;;;;37.08;20.50;;;;;;;;;;5037917;28;20036;-70
2023/10/27 00:44:54;;;;;;;38.65;20.52;;;;;;;;;;5050245;28;20059;-70
2023/10/27 00:47:19;;;;;;;44.10;21.25;;;9.70;99.90;;;;;;5028327;28;20079;-70
2023/10/27 00:49:45;;;;;;;39.00;19.27;;;;;;;;;;5039357;28;20120;-70
2023/10/27 00:52:13;;;;;;;39.50;20.70;;;9.70;99.90;;;;;;5063954;28;20496;-69
2023/10/27 00:54:39;;;;;;;39.47;20.13;;;9.50;99.90;;;;;;5040412;28;20499;-70
2023/10/27 00:57:06;;;;;;;43.10;21.52;;;;;;;;;;5069400;28;20083;-70
2023/10/27 00:59:36;;;;;;;39.50;21.05;;;;;;;;;;5054905;28;20529;-69
2023/10/27 01:02:02;;;;;;;39.13;21.20;;;;;;;;;;5045328;28;20521;-69
2023/10/27 01:04:28;;;;;;;34.72;18.83;;;;;;;;;;5049827;28;20063;-70
2023/10/27 01:06:54;;;;;;;37.75;19.52;;;9.60;99.90;;;;;;5048822;28;20040;-70
2023/10/27 01:09:21;;;;;;;41.45;20.70;;;9.50;99.90;;;;;;5056161;28;20151;-70
2023/10/27 01:11:48;;;;;;;43.30;20.42;;;;;;;;;;5047228;28;20052;-70
2023/10/27 01:14:14;;;;;;;40.13;20.67;;;;;;;;;;5048577;28;20134;-70
2023/10/27 01:16:40;;;;;;;34.70;18.25;;;9.70;99.90;;;;;;5039009;28;20265;-70
2023/10/27 01:19:06;;;;;;;38.75;19.80;;;;;;;;;;5049736;28;20467;-70
2023/10/27 01:21:32;;;;;;;39.38;19.42;;;;;;;;;;5043501;28;20048;-70
2023/10/27 01:23:58;;;;;;;38.38;20.00;;;;;;;;;;5045144;28;20052;-70
2023/10/27 01:26:24;;;;;;;37.67;19.10;;;;;;;;;;5072557;28;20502;-70
2023/10/27 01:28:50;;;;;;;34.83;19.90;;;;;;;;;;5059954;28;20041;-70
2023/10/27 01:31:17;;;;;;;39.75;19.17;;;;;;;;;;5067906;28;20487;-70
2023/10/27 01:33:43;;;;;;;35.70;18.70;;;;;;;;;;5068287;28;20041;-70
2023/10/27 01:36:09;;;;;;;39.63;20.20;;;10.10;99.90;;;;;;5058349;28;20086;-70
2023/10/27 01:38:35;;;;;;;43.28;20.88;;;;;;;;;;5051917;28;20067;-70
2023/10/27 01:41:01;;;;;;;39.42;20.08;;;;;;;;;;5052163;28;20593;-70
2023/10/27 01:43:27;;;;;;;37.70;19.75;;;;;;;;;;5066308;28;20040;-70
2023/10/27 01:45:53;;;;;;;39.63;19.83;;;;;;;;;;5068804;28;20041;-69
2023/10/27 01:48:19;;;;;;;40.92;19.48;;;;;;;;;;5051902;28;20053;-70
2023/10/27 01:50:44;;;;;;;38.85;19.80;;;9.90;99.90;;;;;;5050770;28;20521;-70
2023/10/27 01:53:10;;;;;;;43.58;20.88;;;;;;;;;;5067793;28;20056;-70
2023/10/27 01:55:36;;;;;;;37.50;19.60;;;;;;;;;;5053771;28;20127;-70
2023/10/27 01:58:02;;;;;;;42.13;20.63;;;;;;;;;;5052250;28;20044;-70
2023/10/27 02:00:28;;;;;;;37.30;19.38;;;;;;;;;;5047445;28;20050;-69
2023/10/27 02:02:54;;;;;;;42.80;20.15;;;;;;;;;;5068066;28;20050;-70
2023/10/27 02:05:20;;;;;;;40.17;20.33;;;;;;;;;;5046750;28;20040;-70
2023/10/27 02:07:47;;;;;;;38.55;18.65;;;;;;;;;;5039251;28;20476;-70
2023/10/27 02:10:13;;;;;;;39.85;18.35;;;;;;;;;;5070630;28;20044;-70
2023/10/27 02:12:39;;;;;;;41.10;20.95;;;;;;;;;;5044750;28;20488;-67
2023/10/27 02:15:05;;;;;;;41.80;20.55;;;10.00;99.90;;;;;;5068857;28;20050;-70
2023/10/27 02:17:32;;;;;;;49.10;21.85;;;;;;;;;;5072203;28;20488;-70
2023/10/27 02:19:58;;;;;;;47.47;21.13;;;;;;;;;;5049443;28;20058;-68
2023/10/27 02:22:24;;;;;;;47.65;22.33;;;10.10;99.90;;;;;;5045928;28;20048;-70
2023/10/27 02:24:50;;;;;;;43.55;20.67;;;9.90;99.90;;;;;;5048706;28;20472;-70
2023/10/27 02:27:16;;;;;;;43.50;20.73;;;;;;;;;;5069533;28;20051;-70
2023/10/27 02:29:42;;;;;;;40.67;20.67;;;;;;;;;;5047025;28;20052;-70
2023/10/27 02:32:08;;;;;;;44.08;21.38;;;;;;;;;;5064177;28;20504;-70
2023/10/27 02:34:34;;;;;;;46.33;22.13;;;;;;;;;;5067162;28;20036;-70
2023/10/27 02:37:00;;;;;;;42.75;20.25;;;;;;;;;;5069169;28;20037;-69
2023/10/27 02:39:26;;;;;;;40.17;20.60;;;10.00;99.90;;;;;;5047504;28;20036;-70
2023/10/27 02:41:52;;;;;;;42.10;19.83;;;;;;;;;;5050988;28;20536;-70
2023/10/27 02:44:17;;;;;;;44.58;19.60;;;10.10;99.90;;;;;;5043562;28;20047;-70
2023/10/27 02:46:43;;;;;;;46.90;20.85;;;;;;;;;;5067659;28;20048;-69
2023/10/27 02:49:09;;;;;;;42.03;22.70;;;;;;;;;;5046291;28;20568;-69
2023/10/27 02:51:35;;;;;;;41.58;19.48;;;;;;;;;;5055075;28;20051;-69
2023/10/27 02:54:01;;;;;;;42.88;20.70;;;9.90;99.90;;;;;;5043685;28;20037;-70
2023/10/27 02:56:27;;;;;;;42.97;20.02;;;;;;;;;;5063911;28;20115;-70
2023/10/27 02:58:53;;;;;;;38.97;21.15;;;;;;;;;;5038230;28;20041;-70
2023/10/27 03:01:20;;;;;;;37.78;19.25;;;;;;;;;;5066563;28;20054;-70
2023/10/27 03:03:46;;;;;;;41.90;20.90;;;10.10;99.90;;;;;;5063284;28;20045;-70
2023/10/27 03:06:12;;;;;;;38.28;18.25;;;;;;;;;;5049779;28;20051;-69
2023/10/27 03:08:39;;;;;;;40.67;19.20;;;;;;;;;;5046799;28;20067;-69
2023/10/27 03:11:05;;;;;;;37.95;18.60;;;;;;;;;;5046826;28;20136;-69
2023/10/27 03:13:31;;;;;;;37.20;19.55;;;10.20;99.90;;;;;;5062790;28;20403;-70
2023/10/27 03:15:58;;;;;;;49.45;20.92;;;;;;;;;;5046772;28;20044;-70
2023/10/27 03:18:24;;;;;;;44.85;19.73;;;;;;;;;;5064151;28;20461;-70
2023/10/27 03:20:57;;;;;;;37.20;18.80;;;10.00;99.90;;;;;;5038638;28;20048;-69
2023/10/27 03:23:24;;;;;;;38.78;19.35;;;;;;;;;;5043160;28;20044;-70
2023/10/27 03:25:50;;;;;;;36.78;17.95;;;;;;;;;;5041231;28;20063;-68
2023/10/27 03:28:16;;;;;;;39.00;18.33;;;;;;;;;;5067866;28;20372;-70
2023/10/27 03:30:42;;;;;;;36.83;18.10;;;9.90;99.90;;;;;;5063704;28;20045;-70
2023/10/27 03:33:08;;;;;;;35.80;17.25;;;10.00;99.90;;;;;;5043798;28;20045;-69
2023/10/27 03:35:34;;;;;;;34.83;17.70;;;10.00;99.90;;;;;;5043664;28;20340;-69
2023/10/27 03:38:00;;;;;;;34.42;17.30;;;;;;;;;;5058904;28;20049;-69
2023/10/27 03:40:26;;;;;;;33.28;17.38;;;9.90;99.90;;;;;;5062291;28;20056;-70
2023/10/27 03:42:52;;;;;;;33.65;16.60;;;10.00;99.90;;;;;;5052304;28;20106;-70
2023/10/27 03:45:17;;;;;;;34.92;17.67;;;;;;;;;;5051640;28;20067;-70
2023/10/27 03:47:43;;;;;;;32.10;14.55;;;;;;;;;;5064232;28;20036;-70
2023/10/27 03:50:10;;;;;;;30.95;15.73;;;;;;;;;;5046286;28;20087;-70
2023/10/27 03:52:36;;;;;;;36.55;16.50;;;;;;;;;;5045990;28;20063;-70
2023/10/27 03:55:02;;;;;;;27.40;13.98;;;10.10;99.90;;;;;;5043909;28;20459;-70
2023/10/27 03:57:28;;;;;;;30.20;15.27;;;;;;;;;;5045297;28;20144;-69
2023/10/27 03:59:54;;;;;;;30.23;14.90;;;;;;;;;;5060237;28;20115;-70
2023/10/27 04:02:20;;;;;;;29.42;14.48;;;;;;;;;;5059810;28;20620;-70
2023/10/27 04:04:46;;;;;;;27.15;13.60;;;;;;;;;;5044347;28;20067;-69
2023/10/27 04:07:12;;;;;;;26.42;13.98;;;;;;;;;;5055421;28;20048;-69
2023/10/27 04:09:37;;;;;;;32.60;14.10;;;10.20;99.90;;;;;;5040314;28;20115;-70
2023/10/27 04:12:03;;;;;;;26.55;14.38;;;;;;;;;;5053578;28;20040;-70
2023/10/27 04:14:29;;;;;;;29.17;14.27;;;10.20;99.90;;;;;;5049659;28;20079;-70
2023/10/27 04:16:55;;;;;;;25.25;12.35;;;;;;;;;;5052911;28;20076;-70
2023/10/27 04:19:21;;;;;;;27.23;14.13;;;;;;;;;;5062459;28;20045;-70
2023/10/27 04:21:47;;;;;;;27.25;14.02;;;10.20;99.90;;;;;;5044419;28;20052;-70
2023/10/27 04:24:12;;;;;;;26.20;12.85;;;10.10;99.90;;;;;;5041271;28;20109;-69
2023/10/27 04:26:38;;;;;;;26.42;12.25;;;10.10;99.90;;;;;;5055403;28;20105;-69
2023/10/27 04:29:06;;;;;;;29.85;14.10;;;;;;;;;;5039336;28;20119;-68
2023/10/27 04:31:32;;;;;;;25.20;12.15;;;;;;;;;;5060139;28;20044;-69
2023/10/27 04:33:58;;;;;;;26.25;13.13;;;;;;;;;;5049227;28;20040;-69
2023/10/27 04:36:24;;;;;;;29.42;15.27;;;;;;;;;;5041134;28;20109;-69
2023/10/27 04:38:51;;;;;;;31.30;13.93;;;;;;;;;;5047871;28;20055;-69
2023/10/27 04:41:18;;;;;;;29.88;15.00;;;;;;;;;;5058552;28;20056;-68
2023/10/27 04:43:43;;;;;;;25.60;13.45;;;9.80;99.90;;;;;;5039399;28;20084;-70
2023/10/27 04:46:09;;;;;;;29.10;14.70;;;;;;;;;;5061526;28;20152;-69
2023/10/27 04:48:35;;;;;;;29.75;15.20;;;;;;;;;;5057674;28;20053;-70
2023/10/27 04:51:03;;;;;;;27.40;12.65;;;;;;;;;;5061421;28;20063;-69
2023/10/27 04:53:32;;;;;;;28.75;15.35;;;;;;;;;;5060834;28;20076;-70
2023/10/27 04:55:58;;;;;;;27.63;13.65;;;10.00;99.90;;;;;;5041216;28;20075;-70
2023/10/27 04:58:25;;;;;;;26.95;13.73;;;;;;;;;;5055728;28;20076;-70
2023/10/27 05:00:50;;;;;;;26.25;14.30;;;9.80;99.90;;;;;;5041485;28;20055;-70
2023/10/27 05:03:17;;;;;;;31.00;13.93;;;;;;;;;;5045954;28;20056;-67
2023/10/27 05:05:43;;;;;;;27.02;13.73;;;9.80;99.90;;;;;;5047199;28;20040;-70
2023/10/27 05:08:08;;;;;;;27.67;13.43;;;10.00;99.90;;;;;;5050077;28;20089;-69
2023/10/27 05:10:34;;;;;;;33.30;14.68;;;;;;;;;;5042386;28;20063;-70
2023/10/27 05:13:00;;;;;;;28.70;14.13;;;;;;;;;;5068358;28;20040;-70
2023/10/27 05:15:26;;;;;;;32.78;15.32;;;;;;;;;;5058175;28;20037;-70
2023/10/27 05:17:52;;;;;;;24.70;12.25;;;;;;;;;;5068611;28;20656;-70
2023/10/27 05:20:18;;;;;;;25.60;12.98;;;9.70;99.90;;;;;;5042885;28;20082;-70
2023/10/27 05:22:44;;;;;;;25.70;12.23;;;9.80;99.90;;;;;;5063121;28;20464;-69
2023/10/27 05:25:10;;;;;;;30.40;13.38;;;;;;;;;;5037354;28;20127;-69
2023/10/27 05:27:36;;;;;;;27.55;13.00;;;;;;;;;;5040459;28;20474;-70
2023/10/27 05:30:02;;;;;;;28.98;14.13;;;;;;;;;;5035022;28;20057;-70
2023/10/27 05:32:29;;;;;;;29.50;13.30;;;;;;;;;;5041316;28;20515;-69
2023/10/27 05:34:55;;;;;;;26.98;14.48;;;;;;;;;;5038044;28;20328;-70
2023/10/27 05:37:21;;;;;;;28.15;13.35;;;;;;;;;;5050449;28;20044;-70
2023/10/27 05:39:48;;;;;;;26.70;13.00;;;;;;;;;;5034755;28;20076;-70
2023/10/27 05:42:14;;;;;;;30.17;13.90;;;9.40;99.90;;;;;;5045669;28;20048;-69
2023/10/27 05:44:41;;;;;;;24.73;13.00;;;;;;;;;;5065080;28;20046;-70
2023/10/27 05:47:07;;;;;;;27.30;13.77;;;;;;;;;;5055353;28;20048;-69
2023/10/27 05:49:33;;;;;;;27.50;14.05;;;;;;;;;;5063041;28;20332;-70
2023/10/27 05:52:02;;;;;;;31.58;13.82;;;9.20;99.90;;;;;;5040414;28;20068;-69
2023/10/27 05:54:29;;;;;;;27.05;12.55;;;;;;;;;;5040741;28;20400;-69
2023/10/27 05:56:54;;;;;;;26.20;13.23;;;9.20;99.90;;;;;;5041680;28;20044;-69
2023/10/27 05:59:20;;;;;;;30.38;15.07;;;;;;;;;;5046120;28;20498;-69
2023/10/27 06:01:48;;;;;;;25.35;12.85;;;;;;;;;;5042223;28;20044;-68
2023/10/27 06:04:14;;;;;;;27.95;13.18;;;9.40;99.90;;;;;;5057624;28;20084;-69
2023/10/27 06:06:40;;;;;;;26.02;13.32;;;;;;;;;;5041021;28;20052;-69
2023/10/27 06:09:06;;;;;;;25.27;13.73;;;9.30;99.90;;;;;;5039460;28;20041;-70
2023/10/27 06:11:32;;;;;;;25.15;12.70;;;;;;;;;;5065864;28;20042;-70
2023/10/27 06:13:58;;;;;;;27.55;14.95;;;;;;;;;;5046530;28;20055;-69
2023/10/27 06:16:24;;;;;;;29.90;14.45;;;;;;;;;;5059745;28;20032;-69
2023/10/27 06:18:53;;;;;;;28.25;13.75;;;9.10;99.90;;;;;;5048877;28;20047;-69
2023/10/27 06:21:19;;;;;;;27.13;14.30;;;;;;;;;;5069150;28;20621;-69
2023/10/27 06:23:44;;;;;;;26.85;13.00;;;9.10;99.90;;;;;;5064106;28;20064;-70
2023/10/27 06:26:10;;;;;;;23.15;12.82;;;;;;;;;;5041024;28;20519;-69
2023/10/27 06:28:36;;;;;;;26.35;13.68;;;;;;;;;;5044327;28;20063;-70
2023/10/27 06:31:03;;;;;;;23.63;12.98;;;;;;;;;;5050301;28;20133;-70
2023/10/27 06:33:32;;;;;;;29.60;13.02;;;;;;;;;;5044469;28;20052;-69
2023/10/27 06:35:59;;;;;;;26.98;12.75;;;;;;;;;;5037726;28;20080;-68
2023/10/27 06:38:25;;;;;;;29.77;12.90;;;9.00;99.90;;;;;;5044976;28;20052;-70
2023/10/27 06:40:50;;;;;;;28.58;13.25;;;9.10;99.90;;;;;;5063132;28;20109;-68
2023/10/27 06:43:16;;;;;;;26.30;12.68;;;;;;;;;;5066391;28;20049;-67
2023/10/27 06:45:42;;;;;;;23.83;12.73;;;9.20;99.90;;;;;;5066188;28;20032;-68
2023/10/27 06:48:08;;;;;;;24.92;12.85;;;;;;;;;;5045163;28;20041;-68
2023/10/27 06:50:34;;;;;;;24.95;11.57;;;;;;;;;;5042879;28;20512;-69
2023/10/27 06:53:00;;;;;;;30.10;12.18;;;;;;;;;;5042057;28;20144;-69
2023/10/27 06:55:26;;;;;;;25.65;13.00;;;;;;;;;;5040940;28;20048;-70
2023/10/27 06:57:51;;;;;;;28.80;13.73;;;9.10;99.90;;;;;;5061059;28;20037;-68
2023/10/27 07:00:17;;;;;;;24.88;12.48;;;;;;;;;;5048939;28;20403;-70
2023/10/27 07:02:44;;;;;;;25.08;12.77;;;;;;;;;;5040633;28;20040;-71
2023/10/27 07:05:13;;;;;;;25.95;12.23;;;;;;;;;;5037354;28;20054;-71
2023/10/27 07:07:39;;;;;;;25.17;11.57;;;;;;;;;;5059971;28;20079;-71
2023/10/27 07:10:06;;;;;;;21.67;11.40;;;;;;;;;;5068986;28;20496;-70
2023/10/27 07:12:32;;;;;;;24.23;11.95;;;;;;;;;;5062854;28;20500;-71
2023/10/27 07:14:58;;;;;;;26.67;12.60;;;;;;;;;;5048924;28;20128;-71
2023/10/27 07:17:24;;;;;;;24.75;13.13;;;;;;;;;;5062415;28;20450;-70
2023/10/27 07:19:50;;;;;;;24.75;12.35;;;;;;;;;;5048339;28;20101;-72
2023/10/27 07:22:17;;;;;;;24.65;12.30;;;;;;;;;;5063279;28;20037;-70
2023/10/27 07:24:43;;;;;;;26.25;12.38;;;9.40;99.90;;;;;;5056423;28;20067;-70
2023/10/27 07:27:09;;;;;;;24.23;12.57;;;;;;;;;;5051870;28;20558;-68
2023/10/27 07:29:35;;;;;;;24.58;12.93;;;;;;;;;;5066630;28;20099;-70
2023/10/27 07:32:01;;;;;;;27.17;13.85;;;;;;;;;;5045422;28;20114;-71
2023/10/27 07:34:27;;;;;;;26.98;12.98;;;;;;;;;;5049675;28;20070;-68
2023/10/27 07:36:53;;;;;;;26.15;13.57;;;9.40;99.90;;;;;;5060472;28;20040;-70
2023/10/27 07:39:19;;;;;;;27.90;14.23;;;;;;;;;;5044403;28;20037;-70
2023/10/27 07:41:45;;;;;;;32.45;14.23;;;;;;;;;;5045256;28;20102;-70
2023/10/27 07:44:11;;;;;;;27.25;13.30;;;;;;;;;;5044084;28;20045;-69
2023/10/27 07:46:37;;;;;;;26.63;13.48;;;;;;;;;;5043239;28;20067;-70
2023/10/27 07:49:03;;;;;;;26.27;13.60;;;9.60;99.90;;;;;;5041409;28;20052;-70
2023/10/27 07:51:29;;;;;;;25.85;13.82;;;;;;;;;;5043334;28;20044;-70
2023/10/27 07:53:56;;;;;;;27.55;13.95;;;;;;;;;;5038730;28;20049;-69
2023/10/27 07:56:22;;;;;;;28.35;14.13;;;;;;;;;;5041571;28;20049;-70
2023/10/27 07:58:48;;;;;;;29.73;13.98;;;9.70;99.90;;;;;;5056854;28;20431;-69
2023/10/27 08:01:15;;;;;;;24.38;13.32;;;;;;;;;;5058007;28;20036;-68
2023/10/27 08:03:41;;;;;;;23.20;12.57;;;;;;;;;;5054948;28;20045;-66
2023/10/27 08:06:07;;;;;;;28.08;13.18;;;;;;;;;;5069859;28;20627;-69
2023/10/27 08:08:33;;;;;;;25.77;13.48;;;9.80;99.90;;;;;;5065656;28;20071;-69
2023/10/27 08:11:00;;;;;;;25.50;12.40;;;;;;;;;;5043066;28;20060;-69
2023/10/27 08:13:26;;;;;;;22.92;12.07;;;;;;;;;;5029845;28;20145;-68
2023/10/27 08:15:52;;;;;;;26.00;13.13;;;;;;;;;;5055244;28;20049;-69
2023/10/27 08:18:18;;;;;;;26.15;13.00;;;9.90;99.90;;;;;;5072690;28;20407;-70
2023/10/27 08:20:44;;;;;;;25.77;12.73;;;9.90;99.90;;;;;;5045402;28;20049;-70
2023/10/27 08:23:10;;;;;;;21.98;11.57;;;;;;;;;;5049665;28;20052;-68
2023/10/27 08:25:36;;;;;;;24.35;12.10;;;;;;;;;;5049931;28;20051;-68
2023/10/27 08:28:03;;;;;;;26.83;13.38;;;9.90;99.90;;;;;;5044108;28;20047;-69
2023/10/27 08:30:29;;;;;;;25.40;13.55;;;10.00;99.90;;;;;;5064050;28;20058;-69
2023/10/27 08:32:55;;;;;;;20.75;10.63;;;;;;;;;;5060426;28;20037;-69
2023/10/27 08:35:21;;;;;;;24.15;13.15;;;;;;;;;;5064053;28;20544;-69
2023/10/27 08:37:47;;;;;;;24.95;13.20;;;;;;;;;;5039289;28;20052;-69
2023/10/27 08:40:13;;;;;;;26.55;12.68;;;10.10;99.90;;;;;;5043209;28;20163;-69
2023/10/27 08:42:42;;;;;;;24.27;12.20;;;;;;;;;;5049801;28;20104;-69
2023/10/27 08:45:08;;;;;;;26.38;12.68;;;;;;;;;;5046278;28;20063;-69
2023/10/27 08:47:34;;;;;;;24.42;12.38;;;10.10;99.90;;;;;;5040607;28;20040;-70
2023/10/27 08:50:02;;;;;;;24.23;13.40;;;;;;;;;;5064131;28;20041;-70
2023/10/27 08:52:28;;;;;;;23.88;12.55;;;;;;;;;;5047171;28;20122;-69
2023/10/27 08:54:54;;;;;;;25.50;12.32;;;10.20;99.90;;;;;;5047649;28;20066;-70
2023/10/27 08:57:20;;;;;;;26.63;12.50;;;10.20;99.90;;;;;;5044350;28;20419;-71
2023/10/27 08:59:46;;;;;;;28.13;13.15;;;;;;;;;;5047920;28;20680;-70
2023/10/27 09:02:11;;;;;;;27.63;12.65;;;;;;;;;;5041716;28;20044;-70
2023/10/27 09:04:44;;;;;;;27.17;13.25;;;;;;;;;;5063860;28;20044;-70
2023/10/27 09:07:09;;;;;;;25.13;12.95;;;10.30;99.90;;;;;;5064938;28;20120;-70
2023/10/27 09:09:36;;;;;;;31.33;12.77;;;10.30;99.90;;;;;;5044746;28;20119;-71
2023/10/27 09:12:02;;;;;;;25.58;12.07;;;;;;;;;;5039304;28;20157;-70
2023/10/27 09:14:33;;;;;;;30.73;14.10;;;10.20;99.90;;;;;;5022532;28;20055;-70
2023/10/27 09:17:06;;;;;;;28.65;12.82;;;;;;;;;;5042890;28;20048;-70
2023/10/27 09:19:32;;;;;;;24.98;13.52;;;;;;;;;;5046759;28;20056;-70
2023/10/27 09:21:58;;;;;;;28.48;13.20;;;;;;;;;;5044116;28;20048;-70
2023/10/27 09:24:29;;;;;;;25.52;12.55;;;;;;;;;;5045552;28;20545;-71
2023/10/27 09:26:56;;;;;;;25.42;13.40;;;10.30;99.90;;;;;;5044115;28;20551;-71
2023/10/27 09:29:22;;;;;;;28.45;13.00;;;;;;;;;;5040146;28;20060;-70
2023/10/27 09:31:50;;;;;;;25.08;12.90;;;;;;;;;;5041521;28;20041;-72
2023/10/27 09:34:19;;;;;;;27.90;12.80;;;;;;;;;;5054995;28;20049;-70
2023/10/27 09:36:57;;;;;;;23.80;12.07;;;10.30;99.90;;;;;;5016824;28;20052;-69
2023/10/27 09:39:23;;;;;;;25.20;13.10;;;;;;;;;;5037109;28;20041;-69
2023/10/27 09:41:59;;;;;;;26.98;13.65;;;10.50;99.90;;;;;;5045012;28;20048;-69
2023/10/27 09:44:30;;;;;;;24.83;12.50;;;;;;;;;;5038891;28;20123;-70
2023/10/27 09:46:59;;;;;;;25.42;12.80;;;;;;;;;;5040792;28;20097;-70
2023/10/27 09:49:33;;;;;;;27.48;13.32;;;10.50;99.90;;;;;;5044952;28;20059;-71
2023/10/27 09:51:59;;;;;;;22.13;12.80;;;;;;;;;;5040579;28;20049;-70
2023/10/27 09:54:32;;;;;;;26.65;12.35;;;;;;;;;;5049666;28;20059;-70
2023/10/27 09:56:59;;;;;;;24.15;12.13;;;;;;;;;;5044541;28;20044;-70
2023/10/27 09:59:26;;;;;;;22.40;11.18;;;10.70;99.90;;;;;;5045384;28;20836;-71
2023/10/27 10:01:52;;;;;;;26.00;12.70;;;;;;;;;;5062683;28;20583;-71
2023/10/27 10:04:37;;;;;;;23.65;12.07;;;;;;;;;;5033850;28;20514;-71
2023/10/27 10:07:10;;;;;;;28.38;13.75;;;10.50;99.90;;;;;;5050220;28;20942;-71
2023/10/27 10:09:42;;;;;;;23.17;11.07;;;;;;;;;;5050007;28;20036;-72
2023/10/27 10:12:10;;;;;;;23.42;12.73;;;;;;;;;;5044961;28;20048;-71
2023/10/27 10:14:39;;;;;;;23.90;12.57;;;;;;;;;;5046819;28;20040;-71
2023/10/27 10:17:05;;;;;;;25.13;13.20;;;10.40;99.90;;;;;;5043186;28;20094;-71
2023/10/27 10:19:47;;;;;;;24.98;12.57;;;10.50;99.90;;;;;;5051215;28;20036;-71
2023/10/27 10:22:32;;;;;;;23.75;12.70;;;;;;;;;;5042995;28;20053;-71
2023/10/27 10:25:17;;;;;;;26.27;12.82;;;;;;;;;;5047840;28;20036;-70
2023/10/27 10:28:11;;;;;;;26.20;13.73;;;10.40;99.90;;;;;;5046511;28;20579;-71
2023/10/27 10:30:38;;;;;;;22.98;12.63;;;10.50;99.90;;;;;;5043970;28;20111;-71
2023/10/27 10:33:26;;;;;;;25.58;12.90;;;;;;;;;;5047972;28;20090;-71
2023/10/27 10:35:53;;;;;;;27.30;14.02;;;;;;;;;;5041695;28;20047;-71
2023/10/27 10:38:21;;;;;;;22.90;11.70;;;10.60;99.90;;;;;;5039686;28;20050;-71
2023/10/27 10:40:54;;;;;;;23.80;12.45;;;;;;;;;;5038893;28;20045;-71
2023/10/27 10:43:24;;;;;;;24.58;12.65;;;;;;;;;;5045436;28;20174;-71
2023/10/27 10:45:56;;;;;;;24.17;12.85;;;10.60;99.90;;;;;;5053321;28;20044;-71
2023/10/27 10:48:24;;;;;;;23.70;11.57;;;;;;;;;;5062276;28;20076;-72
2023/10/27 10:50:51;;;;;;;24.55;11.98;;;10.70;99.90;;;;;;5044811;28;20052;-71
2023/10/27 10:53:19;;;;;;;25.80;12.00;;;;;;;;;;5040104;28;20419;-71
2023/10/27 10:55:46;;;;;;;21.95;11.80;;;10.70;99.90;;;;;;5059220;28;20045;-72
2023/10/27 10:58:35;;;;;;;22.00;11.18;;;11.00;99.90;;;;;;5047645;28;20044;-70
2023/10/27 11:01:03;;;;;;;23.73;12.45;;;;;;;;;;5044040;28;20088;-71
2023/10/27 11:03:31;;;;;;;25.48;13.05;;;;;;;;;;5055020;28;20052;-70
2023/10/27 11:06:06;;;;;;;26.45;12.35;;;;;;;;;;5049606;28;20123;-70
2023/10/27 11:08:34;;;;;;;;;;;10.70;99.90;;;;;;5064467;28;20118;-71
2023/10/27 11:11:00;;;;;;;24.75;12.90;;;;;;;;;;5059809;28;19928;-71
2023/10/27 11:13:27;;;;;;;24.75;12.13;;;10.60;99.90;;;;;;5042680;28;20051;-71
2023/10/27 11:15:53;;;;;;;25.40;13.35;;;;;;;;;;5044250;28;20547;-72
2023/10/27 11:18:19;;;;;;;24.75;12.65;;;;;;;;;;5027382;28;20049;-71
2023/10/27 11:20:45;;;;;;;26.40;12.43;;;;;;;;;;5042380;28;20495;-71
2023/10/27 11:23:15;;;;;;;24.02;13.25;;;;;;;;;;5062998;28;20049;-70
2023/10/27 11:25:42;;;;;;;24.85;12.65;;;10.60;99.90;;;;;;5045454;28;20249;-70
2023/10/27 11:28:26;;;;;;;25.25;12.88;;;;;;;;;;5042713;28;20063;-71
2023/10/27 11:31:09;;;;;;;26.20;13.43;;;;;;;;;;5043194;28;20045;-70
2023/10/27 11:33:54;;;;;;;26.27;13.52;;;;;;;;;;5069861;28;20040;-70
2023/10/27 11:36:21;;;;;;;26.20;13.68;;;;;;;;;;5048745;28;20071;-71
2023/10/27 11:38:47;;;;;;;25.83;12.30;;;;;;;;;;5042869;28;20049;-71
2023/10/27 11:41:12;;;;;;;26.77;13.95;;;10.80;99.90;;;;;;5041247;28;20066;-70
2023/10/27 11:43:39;;;;;;;24.33;12.00;;;;;;;;;;5042028;28;20045;-71
2023/10/27 11:46:13;;;;;;;27.13;14.32;;;;;;;;;;5046453;28;20156;-71
2023/10/27 11:48:39;;;;;;;29.08;13.57;;;;;;;;;;5063180;28;20060;-71
2023/10/27 11:51:05;;;;;;;28.92;14.65;;;;;;;;;;5038930;28;20049;-71
2023/10/27 11:53:33;;;;;;;29.00;14.23;;;;;;;;;;5040741;28;20269;-72
2023/10/27 11:56:00;;;;;;;25.38;13.20;;;;;;;;;;5050072;28;20040;-70
2023/10/27 11:58:26;;;;;;;27.27;13.23;;;;;;;;;;5046435;28;20052;-70
2023/10/27 12:00:52;;;;;;;23.50;12.82;;;;;;;;;;5042701;28;20379;-71
2023/10/27 12:03:18;;;;;;;23.58;13.98;;;;;;;;;;5040352;28;20045;-70
2023/10/27 12:05:43;;;;;;;26.52;13.43;;;10.80;99.90;;;;;;5043743;28;20044;-71
2023/10/27 12:08:09;;;;;;;27.63;13.88;;;;;;;;;;5044753;28;20071;-71
2023/10/27 12:10:35;;;;;;;27.00;14.10;;;;;;;;;;5038273;28;20083;-72
2023/10/27 12:13:06;;;;;;;27.42;14.07;;;;;;;;;;5038202;28;20044;-70
2023/10/27 12:15:36;;;;;;;27.38;14.10;;;;;;;;;;5064929;28;20049;-69
2023/10/27 12:18:06;;;;;;;28.45;15.27;;;;;;;;;;5049544;28;20060;-70
2023/10/27 12:20:32;;;;;;;26.00;13.65;;;;;;;;;;5061358;28;20059;-70
2023/10/27 12:22:58;;;;;;;25.83;14.32;;;10.80;99.90;;;;;;5062377;28;20388;-71
2023/10/27 12:25:23;;;;;;;28.08;14.48;;;10.70;99.90;;;;;;5043373;28;20096;-71
2023/10/27 12:27:49;;;;;;;24.13;13.65;;;10.70;99.90;;;;;;5035880;28;20051;-69
2023/10/27 12:30:15;;;;;;;25.95;14.00;;;;;;;;;;5060106;28;20045;-69
2023/10/27 12:32:42;;;;;;;28.35;14.23;;;;;;;;;;5062550;28;20554;-71
2023/10/27 12:35:08;;;;;;;26.52;13.95;;;10.70;99.90;;;;;;5060051;28;20040;-71
2023/10/27 12:37:35;;;;;;;28.77;15.50;;;;;;;;;;5039479;28;20040;-71
2023/10/27 12:40:04;;;;;;;25.50;14.13;;;;;;;;;;5035355;28;20044;-70
2023/10/27 12:42:30;;;;;;;26.13;14.63;;;;;;;;;;5059490;28;20204;-70
2023/10/27 12:44:56;;;;;;;26.98;15.18;;;;;;;;;;5046114;28;20143;-70
2023/10/27 12:47:22;;;;;;;27.40;14.80;;;;;;;;;;5041350;28;20052;-70
2023/10/27 12:49:48;;;;;;;25.52;14.57;;;;;;;;;;5042726;28;20048;-70
2023/10/27 12:52:15;;;;;;;27.95;14.43;;;10.80;99.90;;;;;;5045365;28;20105;-70
2023/10/27 12:54:41;;;;;;;28.02;15.30;;;;;;;;;;5058539;28;20102;-70
2023/10/27 12:57:07;;;;;;;27.05;15.43;;;;;;;;;;5044246;28;20033;-71
2023/10/27 12:59:33;;;;;;;23.38;13.20;;;;;;;;;;5045480;28;20072;-71
2023/10/27 13:01:59;;;;;;;27.55;14.57;;;;;;;;;;5044552;28;20051;-71
2023/10/27 13:04:25;;;;;;;28.58;13.45;;;;;;;;;;5046788;28;20048;-71
2023/10/27 13:06:51;;;;;;;28.40;15.18;;;;;;;;;;5046778;28;20109;-73
2023/10/27 13:09:18;;;;;;;25.50;14.38;;;;;;;;;;5022050;28;20126;-71
2023/10/27 13:11:44;;;;;;;27.05;14.52;;;;;;;;;;5059664;28;20497;-71
2023/10/27 13:14:11;;;;;;;26.33;13.90;;;;;;;;;;5059309;28;20435;-71
2023/10/27 13:16:39;;;;;;;28.35;15.18;;;;;;;;;;5039141;28;20087;-71
2023/10/27 13:19:05;;;;;;;26.48;14.65;;;;;;;;;;5040339;28;20095;-68
2023/10/27 13:21:35;;;;;;;26.05;14.00;;;;;;;;;;5044846;28;20138;-69
2023/10/27 13:24:01;;;;;;;27.83;15.23;;;;;;;;;;5040228;28;20060;-71
2023/10/27 13:26:29;;;;;;;27.33;15.63;;;;;;;;;;5027911;28;20051;-71
2023/10/27 13:28:56;;;;;;;25.92;13.63;;;11.00;99.90;;;;;;5036339;28;20052;-70
2023/10/27 13:31:22;;;;;;;21.98;12.80;;;;;;;;;;5044192;28;20040;-70
2023/10/27 13:33:49;;;;;;;27.73;14.60;;;;;;;;;;5041764;28;20105;-69
2023/10/27 13:36:15;;;;;;;26.63;13.85;;;11.00;99.90;;;;;;5047236;28;20052;-70
2023/10/27 13:38:41;;;;;;;22.77;13.32;;;;;;;;;;5043493;28;20489;-71
2023/10/27 13:41:20;;;;;;;23.17;13.13;;;;;;;;;;5048185;28;20044;-71
2023/10/27 13:43:47;;;;;;;24.42;12.75;;;;;;;;;;5038660;28;20051;-71
2023/10/27 13:46:14;;;;;;;28.83;13.93;;;;;;;;;;5060737;28;20047;-70